Impacts METAR Board
IDs:

KEWR - Newark Intl, NJ, US

Updated at: 1300 UTC 07 Jul 2020
Potential Impact None Slight Moderate High
Time 07/01Z 07/02Z 07/03Z 07/04Z 07/05Z 07/06Z 07/07Z 07/08Z 07/09Z 07/10Z 07/11Z 07/12Z 07/13Z
Temp75 75 74 73 73 73 73 73 73 74 74 75 77
Dewpt65 69 70 69 69 69 69 69 69 69 70 70 69
Altim30.08 30.09 30.10 30.10 30.12 30.11 30.10 30.09 30.10 30.11 30.11 30.11 30.10
VIS10 9 9 9 10 10 10 10 9 9 9 10 10
CIG250 250 13 13 13 13 12 12 12 38 38 -- 28
CoverBKNBKNBKNBKNOVCBKNBKNBKNBKNBKNBKNSCTBKN
FltCatVFRVFRMVFRMVFRMVFRMVFRMVFRMVFRMVFRVFRVFRVFRMVFR
WX--------------------------
WDir1100801101109090110130120100110110
WSpd5 5 8 10 7 6 4 5 5 5 6 8 6
WGst-- -- -- -- -- -- -- -- -- -- -- -- --
Raw hourly METARs
KEWR 070051Z 11005KT 10SM FEW022 SCT130 BKN250 24/18 A3008 RMK AO2 SLP184 T02390183 $
KEWR 070151Z VRB05KT 9SM FEW015 FEW130 BKN250 24/21 A3009 RMK AO2 SLP188 T02390206 $
KEWR 070251Z 08008KT 9SM BKN013 BKN130 BKN250 23/21 A3010 RMK AO2 SLP193 T02330211 53013 $
KEWR 070351Z 11010KT 9SM BKN013 BKN018 BKN150 BKN250 23/21 A3010 RMK AO2 SLP194 T02280206 $
KEWR 070451Z 11007KT 10SM BKN013 OVC018 23/21 A3012 RMK AO2 SLP198 T02280206 403440211 $
KEWR 070551Z 09006KT 10SM BKN013 BKN021 23/21 A3011 RMK AO2 SLP194 T02280206 10244 20228 50001 $
KEWR 070651Z 09004KT 10SM BKN012 BKN020 23/21 A3010 RMK AO2 SLP193 T02280206 $
KEWR 070751Z 11005KT 10SM BKN012 23/21 A3009 RMK AO2 SLP187 T02280206 $
KEWR 070851Z 13005KT 9SM BKN012 BKN022 23/21 A3010 RMK AO2 SLP192 T02280206 55002 $
KEWR 070951Z 12005KT 9SM SCT013 BKN038 23/21 A3011 RMK AO2 SLP194 T02330206 $
KEWR 071058Z 10006KT 9SM SCT013 BKN038 23/21 A3011 RMK AO2 T02330211
KEWR 071151Z 11008KT 10SM FEW014 SCT038 SCT250 24/21 A3011 RMK AO2 SLP194 70058 T02390211 10239 20228 50002
KEWR 071251Z 11006KT 10SM SCT015 BKN028 BKN038 25/21 A3010 RMK AO2 SLP192 T02500206



Page loaded:  13:47 UTC  |   06:47 AM Pacific  |   07:47 AM Mountain  |   08:47 AM Central  |   09:47 AM Eastern

 

ADVISORIES

FORECASTS

FORECASTS

OBSERVATIONS

USER TOOLS

ABOUT US